sensor_id;sensor_type;location;lat;lon;timestamp;pressure;altitude;pressure_sealevel;temperature;humidity
28701;BME280;15877;52.344;16.790;2023-06-24T00:00:48;101035.75;;;22.23;64.56
28701;BME280;15877;52.344;16.790;2023-06-24T00:03:40;101039.79;;;22.24;64.23
28701;BME280;15877;52.344;16.790;2023-06-24T00:06:15;101043.10;;;22.14;64.32
28701;BME280;15877;52.344;16.790;2023-06-24T00:08:50;101046.34;;;22.13;64.52
28701;BME280;15877;52.344;16.790;2023-06-24T00:11:23;101050.48;;;22.13;64.27
28701;BME280;15877;52.344;16.790;2023-06-24T00:13:57;101051.02;;;22.09;64.46
28701;BME280;15877;52.344;16.790;2023-06-24T00:16:29;101055.27;;;22.06;64.31
28701;BME280;15877;52.344;16.790;2023-06-24T00:19:02;101050.20;;;21.94;64.58
28701;BME280;15877;52.344;16.790;2023-06-24T00:21:34;101047.94;;;21.94;64.73
28701;BME280;15877;52.344;16.790;2023-06-24T00:24:10;101037.41;;;21.89;64.88
28701;BME280;15877;52.344;16.790;2023-06-24T00:26:43;101052.52;;;22.01;64.88
28701;BME280;15877;52.344;16.790;2023-06-24T00:29:16;101049.87;;;22.05;64.93
28701;BME280;15877;52.344;16.790;2023-06-24T00:31:48;101043.42;;;22.09;64.63
28701;BME280;15877;52.344;16.790;2023-06-24T00:34:21;101048.94;;;22.08;64.62
28701;BME280;15877;52.344;16.790;2023-06-24T00:36:55;101045.41;;;22.06;64.39
28701;BME280;15877;52.344;16.790;2023-06-24T00:39:27;101046.02;;;22.13;64.14
28701;BME280;15877;52.344;16.790;2023-06-24T00:41:59;101045.45;;;22.14;64.18
28701;BME280;15877;52.344;16.790;2023-06-24T00:44:32;101056.96;;;22.18;63.89
28701;BME280;15877;52.344;16.790;2023-06-24T00:47:07;101058.50;;;22.07;63.71
28701;BME280;15877;52.344;16.790;2023-06-24T00:49:41;101055.91;;;21.90;63.90
28701;BME280;15877;52.344;16.790;2023-06-24T00:52:16;101056.77;;;21.98;63.42
28701;BME280;15877;52.344;16.790;2023-06-24T00:54:50;101059.31;;;21.90;62.95
28701;BME280;15877;52.344;16.790;2023-06-24T00:57:22;101065.67;;;21.97;62.66
28701;BME280;15877;52.344;16.790;2023-06-24T00:59:55;101066.67;;;21.96;61.60
28701;BME280;15877;52.344;16.790;2023-06-24T01:02:31;101073.84;;;22.03;61.62
28701;BME280;15877;52.344;16.790;2023-06-24T01:05:05;101071.41;;;22.03;61.24
28701;BME280;15877;52.344;16.790;2023-06-24T01:07:37;101076.77;;;22.01;61.38
28701;BME280;15877;52.344;16.790;2023-06-24T01:10:11;101075.17;;;22.00;61.45
28701;BME280;15877;52.344;16.790;2023-06-24T01:12:46;101071.67;;;22.01;61.84
28701;BME280;15877;52.344;16.790;2023-06-24T01:15:20;101071.69;;;22.06;61.99
28701;BME280;15877;52.344;16.790;2023-06-24T01:17:59;101071.58;;;22.08;62.13
28701;BME280;15877;52.344;16.790;2023-06-24T01:20:39;101071.54;;;22.10;62.07
28701;BME280;15877;52.344;16.790;2023-06-24T01:23:54;101077.58;;;22.13;61.79
28701;BME280;15877;52.344;16.790;2023-06-24T01:27:02;101082.62;;;22.11;62.08
28701;BME280;15877;52.344;16.790;2023-06-24T01:30:00;101087.64;;;22.15;62.59
28701;BME280;15877;52.344;16.790;2023-06-24T01:32:44;101088.02;;;22.16;62.46
28701;BME280;15877;52.344;16.790;2023-06-24T01:35:21;101093.80;;;22.14;60.58
28701;BME280;15877;52.344;16.790;2023-06-24T01:37:59;101098.78;;;22.11;59.41
28701;BME280;15877;52.344;16.790;2023-06-24T01:40:39;101095.92;;;22.13;59.53
28701;BME280;15877;52.344;16.790;2023-06-24T01:43:14;101098.16;;;22.15;59.41
28701;BME280;15877;52.344;16.790;2023-06-24T01:45:51;101094.02;;;22.10;59.79
28701;BME280;15877;52.344;16.790;2023-06-24T01:48:27;101097.02;;;22.10;60.37
28701;BME280;15877;52.344;16.790;2023-06-24T01:51:03;101100.90;;;22.15;59.63
28701;BME280;15877;52.344;16.790;2023-06-24T01:53:42;101101.07;;;22.15;59.62
28701;BME280;15877;52.344;16.790;2023-06-24T01:56:16;101077.14;;;22.03;59.67
28701;BME280;15877;52.344;16.790;2023-06-24T01:58:52;101098.73;;;22.14;59.30
28701;BME280;15877;52.344;16.790;2023-06-24T02:01:27;101091.41;;;22.11;59.21
28701;BME280;15877;52.344;16.790;2023-06-24T02:04:02;101105.70;;;22.08;59.41
28701;BME280;15877;52.344;16.790;2023-06-24T02:06:36;101097.08;;;21.93;59.22
28701;BME280;15877;52.344;16.790;2023-06-24T02:09:11;101108.71;;;22.00;59.31
28701;BME280;15877;52.344;16.790;2023-06-24T02:11:45;101114.90;;;21.97;59.22
28701;BME280;15877;52.344;16.790;2023-06-24T02:14:18;101116.52;;;21.92;59.55
28701;BME280;15877;52.344;16.790;2023-06-24T02:16:52;101116.84;;;21.92;59.64
28701;BME280;15877;52.344;16.790;2023-06-24T02:19:30;101115.40;;;21.91;60.13
28701;BME280;15877;52.344;16.790;2023-06-24T02:22:01;101119.02;;;21.97;60.40
28701;BME280;15877;52.344;16.790;2023-06-24T02:24:35;101121.58;;;21.99;60.71
28701;BME280;15877;52.344;16.790;2023-06-24T02:27:08;101120.16;;;22.08;60.60
28701;BME280;15877;52.344;16.790;2023-06-24T02:29:43;101115.25;;;22.08;60.84
28701;BME280;15877;52.344;16.790;2023-06-24T02:32:17;101119.84;;;22.03;61.23
28701;BME280;15877;52.344;16.790;2023-06-24T02:34:49;101121.26;;;21.94;61.53
28701;BME280;15877;52.344;16.790;2023-06-24T02:37:25;101118.09;;;21.83;62.08
28701;BME280;15877;52.344;16.790;2023-06-24T02:39:59;101101.22;;;21.69;62.74
28701;BME280;15877;52.344;16.790;2023-06-24T02:42:33;101116.89;;;21.73;62.99
28701;BME280;15877;52.344;16.790;2023-06-24T02:45:08;101109.63;;;21.66;63.61
28701;BME280;15877;52.344;16.790;2023-06-24T02:47:52;101102.94;;;21.65;63.89
28701;BME280;15877;52.344;16.790;2023-06-24T02:50:29;101107.85;;;21.59;64.28
28701;BME280;15877;52.344;16.790;2023-06-24T02:53:03;101114.03;;;21.56;64.78
28701;BME280;15877;52.344;16.790;2023-06-24T02:55:37;101122.80;;;21.45;65.36
28701;BME280;15877;52.344;16.790;2023-06-24T02:58:11;101128.31;;;21.36;65.44
28701;BME280;15877;52.344;16.790;2023-06-24T03:00:44;101133.52;;;21.32;65.24
28701;BME280;15877;52.344;16.790;2023-06-24T03:03:33;101140.19;;;21.35;65.01
28701;BME280;15877;52.344;16.790;2023-06-24T03:06:06;101143.90;;;21.36;65.26
28701;BME280;15877;52.344;16.790;2023-06-24T03:10:37;101151.88;;;21.37;65.53
28701;BME280;15877;52.344;16.790;2023-06-24T03:13:13;101154.51;;;21.26;65.79
28701;BME280;15877;52.344;16.790;2023-06-24T03:15:50;101158.64;;;21.25;66.08
28701;BME280;15877;52.344;16.790;2023-06-24T03:18:24;101164.48;;;21.30;65.97
28701;BME280;15877;52.344;16.790;2023-06-24T03:20:58;101163.98;;;21.32;66.35
28701;BME280;15877;52.344;16.790;2023-06-24T03:23:33;101167.59;;;21.34;66.45
28701;BME280;15877;52.344;16.790;2023-06-24T03:26:06;101154.89;;;21.29;66.11
28701;BME280;15877;52.344;16.790;2023-06-24T03:28:40;101167.92;;;21.47;65.67
28701;BME280;15877;52.344;16.790;2023-06-24T03:31:19;101155.77;;;21.37;65.76
28701;BME280;15877;52.344;16.790;2023-06-24T03:33:59;101174.05;;;21.50;66.04
28701;BME280;15877;52.344;16.790;2023-06-24T03:36:32;101173.83;;;21.54;66.26
28701;BME280;15877;52.344;16.790;2023-06-24T03:39:07;101169.11;;;21.58;66.22
28701;BME280;15877;52.344;16.790;2023-06-24T03:41:42;101154.27;;;21.41;66.82
28701;BME280;15877;52.344;16.790;2023-06-24T03:44:17;101170.57;;;21.49;67.13
28701;BME280;15877;52.344;16.790;2023-06-24T03:46:52;101170.48;;;21.52;67.09
28701;BME280;15877;52.344;16.790;2023-06-24T03:49:25;101176.59;;;21.46;67.42
28701;BME280;15877;52.344;16.790;2023-06-24T03:51:59;101174.14;;;21.41;67.69
28701;BME280;15877;52.344;16.790;2023-06-24T03:54:32;101175.79;;;21.38;68.35
28701;BME280;15877;52.344;16.790;2023-06-24T03:57:06;101172.70;;;21.32;68.67
28701;BME280;15877;52.344;16.790;2023-06-24T03:59:39;101175.06;;;21.38;68.71
28701;BME280;15877;52.344;16.790;2023-06-24T04:02:22;101175.67;;;21.48;68.38
28701;BME280;15877;52.344;16.790;2023-06-24T04:05:00;101174.77;;;21.52;68.29
28701;BME280;15877;52.344;16.790;2023-06-24T04:07:37;101175.89;;;21.50;68.74
28701;BME280;15877;52.344;16.790;2023-06-24T04:10:18;101176.42;;;21.47;68.70
28701;BME280;15877;52.344;16.790;2023-06-24T04:12:52;101152.69;;;21.30;68.79
28701;BME280;15877;52.344;16.790;2023-06-24T04:15:26;101181.73;;;21.41;69.26
28701;BME280;15877;52.344;16.790;2023-06-24T04:18:00;101183.40;;;21.43;68.91
28701;BME280;15877;52.344;16.790;2023-06-24T04:20:40;101191.19;;;21.41;68.84
28701;BME280;15877;52.344;16.790;2023-06-24T04:23:14;101192.48;;;21.41;68.76
28701;BME280;15877;52.344;16.790;2023-06-24T04:25:47;101188.65;;;21.43;68.85
28701;BME280;15877;52.344;16.790;2023-06-24T04:28:20;101178.10;;;21.33;69.33
28701;BME280;15877;52.344;16.790;2023-06-24T04:30:55;101192.14;;;21.42;69.51
28701;BME280;15877;52.344;16.790;2023-06-24T04:33:30;101193.86;;;21.47;68.67
28701;BME280;15877;52.344;16.790;2023-06-24T04:36:04;101197.59;;;21.46;69.00
28701;BME280;15877;52.344;16.790;2023-06-24T04:38:38;101197.05;;;21.44;68.93
28701;BME280;15877;52.344;16.790;2023-06-24T04:41:13;101202.70;;;21.36;69.24
28701;BME280;15877;52.344;16.790;2023-06-24T04:43:46;101202.10;;;21.38;69.56
28701;BME280;15877;52.344;16.790;2023-06-24T04:46:18;101201.94;;;21.40;69.73
28701;BME280;15877;52.344;16.790;2023-06-24T04:48:52;101202.00;;;21.49;69.14
28701;BME280;15877;52.344;16.790;2023-06-24T04:51:25;101205.36;;;21.52;69.15
28701;BME280;15877;52.344;16.790;2023-06-24T04:53:59;101205.19;;;21.48;69.03
28701;BME280;15877;52.344;16.790;2023-06-24T04:56:32;101209.27;;;21.41;69.42
28701;BME280;15877;52.344;16.790;2023-06-24T04:59:06;101211.41;;;21.47;69.28
28701;BME280;15877;52.344;16.790;2023-06-24T05:01:41;101204.61;;;21.47;69.35
28701;BME280;15877;52.344;16.790;2023-06-24T05:04:15;101204.80;;;21.52;69.05
28701;BME280;15877;52.344;16.790;2023-06-24T05:06:48;101205.09;;;21.47;69.03
28701;BME280;15877;52.344;16.790;2023-06-24T05:09:21;101206.56;;;21.45;68.72
28701;BME280;15877;52.344;16.790;2023-06-24T05:11:56;101208.14;;;21.50;68.22
28701;BME280;15877;52.344;16.790;2023-06-24T05:14:29;101210.16;;;21.41;68.48
28701;BME280;15877;52.344;16.790;2023-06-24T05:17:04;101189.23;;;21.34;68.74
28701;BME280;15877;52.344;16.790;2023-06-24T05:19:37;101206.73;;;21.45;68.29
28701;BME280;15877;52.344;16.790;2023-06-24T05:22:13;101204.87;;;21.45;68.21
28701;BME280;15877;52.344;16.790;2023-06-24T05:24:51;101210.46;;;21.44;68.61
28701;BME280;15877;52.344;16.790;2023-06-24T05:27:25;101209.69;;;21.31;68.69
28701;BME280;15877;52.344;16.790;2023-06-24T05:30:00;101214.12;;;21.33;68.92
28701;BME280;15877;52.344;16.790;2023-06-24T05:32:35;101213.83;;;21.40;68.98
28701;BME280;15877;52.344;16.790;2023-06-24T05:35:08;101206.05;;;21.49;68.81
28701;BME280;15877;52.344;16.790;2023-06-24T05:37:45;101205.08;;;21.41;68.36
28701;BME280;15877;52.344;16.790;2023-06-24T05:40:20;101206.50;;;21.52;68.02
28701;BME280;15877;52.344;16.790;2023-06-24T05:46:17;101209.46;;;21.54;67.97
28701;BME280;15877;52.344;16.790;2023-06-24T05:48:50;101215.92;;;21.48;68.36
28701;BME280;15877;52.344;16.790;2023-06-24T05:51:25;101213.77;;;21.44;68.24
28701;BME280;15877;52.344;16.790;2023-06-24T05:54:00;101219.36;;;21.42;68.35
28701;BME280;15877;52.344;16.790;2023-06-24T05:56:34;101213.77;;;21.45;68.24
28701;BME280;15877;52.344;16.790;2023-06-24T05:59:10;101212.54;;;21.38;68.46
28701;BME280;15877;52.344;16.790;2023-06-24T06:01:43;101211.77;;;21.50;68.56
28701;BME280;15877;52.344;16.790;2023-06-24T06:04:16;101213.35;;;21.54;68.59
28701;BME280;15877;52.344;16.790;2023-06-24T06:06:49;101217.33;;;21.59;68.33
28701;BME280;15877;52.344;16.790;2023-06-24T06:09:23;101212.77;;;21.55;68.53
28701;BME280;15877;52.344;16.790;2023-06-24T06:11:56;101212.00;;;21.59;68.55
28701;BME280;15877;52.344;16.790;2023-06-24T06:14:28;101207.82;;;21.64;68.59
28701;BME280;15877;52.344;16.790;2023-06-24T06:17:01;101212.59;;;21.72;68.02
28701;BME280;15877;52.344;16.790;2023-06-24T06:19:39;101219.38;;;21.81;68.25
28701;BME280;15877;52.344;16.790;2023-06-24T06:22:12;101218.23;;;21.84;67.76
28701;BME280;15877;52.344;16.790;2023-06-24T06:24:46;101216.09;;;21.93;67.37
28701;BME280;15877;52.344;16.790;2023-06-24T06:27:21;101218.42;;;22.01;67.11
28701;BME280;15877;52.344;16.790;2023-06-24T06:29:55;101215.30;;;22.11;66.79
28701;BME280;15877;52.344;16.790;2023-06-24T06:32:28;101216.85;;;22.10;66.55
28701;BME280;15877;52.344;16.790;2023-06-24T06:35:13;101200.94;;;21.96;66.36
28701;BME280;15877;52.344;16.790;2023-06-24T06:38:11;101216.13;;;22.04;66.82
28701;BME280;15877;52.344;16.790;2023-06-24T06:40:56;101218.58;;;22.01;66.22
28701;BME280;15877;52.344;16.790;2023-06-24T06:44:03;101216.56;;;22.01;66.30
28701;BME280;15877;52.344;16.790;2023-06-24T06:46:36;101198.02;;;21.97;66.61
28701;BME280;15877;52.344;16.790;2023-06-24T06:49:11;101212.35;;;22.20;66.21
28701;BME280;15877;52.344;16.790;2023-06-24T06:51:46;101220.30;;;22.19;65.54
28701;BME280;15877;52.344;16.790;2023-06-24T06:54:21;101220.69;;;22.14;65.57
28701;BME280;15877;52.344;16.790;2023-06-24T06:56:59;101223.33;;;22.15;65.74
28701;BME280;15877;52.344;16.790;2023-06-24T06:59:36;101227.00;;;22.06;65.30
28701;BME280;15877;52.344;16.790;2023-06-24T07:02:09;101228.90;;;22.03;65.59
28701;BME280;15877;52.344;16.790;2023-06-24T07:04:42;101221.14;;;22.03;65.95
28701;BME280;15877;52.344;16.790;2023-06-24T07:07:16;101221.88;;;22.03;65.27
28701;BME280;15877;52.344;16.790;2023-06-24T07:09:48;101223.54;;;21.99;64.44
28701;BME280;15877;52.344;16.790;2023-06-24T07:12:22;101224.23;;;22.08;63.75
28701;BME280;15877;52.344;16.790;2023-06-24T07:14:56;101227.63;;;22.15;63.67
28701;BME280;15877;52.344;16.790;2023-06-24T07:17:29;101214.00;;;22.04;63.83
28701;BME280;15877;52.344;16.790;2023-06-24T07:20:07;101219.05;;;22.21;63.04
28701;BME280;15877;52.344;16.790;2023-06-24T07:22:45;101223.05;;;22.30;61.78
28701;BME280;15877;52.344;16.790;2023-06-24T07:25:25;101225.33;;;22.29;61.32
28701;BME280;15877;52.344;16.790;2023-06-24T07:28:32;101220.43;;;22.38;61.03
28701;BME280;15877;52.344;16.790;2023-06-24T07:31:12;101217.19;;;22.52;60.72
28701;BME280;15877;52.344;16.790;2023-06-24T07:33:48;101221.67;;;22.49;61.25
28701;BME280;15877;52.344;16.790;2023-06-24T07:36:23;101218.30;;;22.52;61.48
28701;BME280;15877;52.344;16.790;2023-06-24T07:38:57;101211.07;;;22.49;61.48
28701;BME280;15877;52.344;16.790;2023-06-24T07:41:57;101219.45;;;22.69;60.98
28701;BME280;15877;52.344;16.790;2023-06-24T07:44:31;101226.70;;;22.76;60.81
28701;BME280;15877;52.344;16.790;2023-06-24T07:47:06;101223.45;;;22.92;59.82
28701;BME280;15877;52.344;16.790;2023-06-24T07:49:42;101221.44;;;22.86;60.52
28701;BME280;15877;52.344;16.790;2023-06-24T07:52:15;101221.10;;;22.88;60.94
28701;BME280;15877;52.344;16.790;2023-06-24T07:54:48;101218.64;;;22.89;60.18
28701;BME280;15877;52.344;16.790;2023-06-24T07:57:22;101221.70;;;22.81;59.34
28701;BME280;15877;52.344;16.790;2023-06-24T07:59:55;101223.52;;;22.79;58.91
28701;BME280;15877;52.344;16.790;2023-06-24T08:02:28;101220.90;;;22.84;57.59
28701;BME280;15877;52.344;16.790;2023-06-24T08:05:04;101221.59;;;22.98;57.45
28701;BME280;15877;52.344;16.790;2023-06-24T08:07:39;101226.63;;;23.11;56.82
28701;BME280;15877;52.344;16.790;2023-06-24T08:10:11;101230.45;;;23.25;55.55
28701;BME280;15877;52.344;16.790;2023-06-24T08:13:00;101234.65;;;23.26;54.11
28701;BME280;15877;52.344;16.790;2023-06-24T08:16:09;101238.13;;;23.27;54.26
28701;BME280;15877;52.344;16.790;2023-06-24T08:18:41;101231.31;;;23.32;55.56
28701;BME280;15877;52.344;16.790;2023-06-24T08:21:18;101224.68;;;23.32;56.15
28701;BME280;15877;52.344;16.790;2023-06-24T08:23:53;101230.19;;;23.36;55.82
28701;BME280;15877;52.344;16.790;2023-06-24T08:26:26;101236.70;;;23.48;55.67
28701;BME280;15877;52.344;16.790;2023-06-24T08:29:00;101239.33;;;23.46;55.09
28701;BME280;15877;52.344;16.790;2023-06-24T08:31:36;101241.38;;;23.55;55.31
28701;BME280;15877;52.344;16.790;2023-06-24T08:34:10;101240.55;;;23.46;55.51
28701;BME280;15877;52.344;16.790;2023-06-24T08:36:49;101218.71;;;23.34;55.36
28701;BME280;15877;52.344;16.790;2023-06-24T08:39:23;101242.83;;;23.50;54.77
28701;BME280;15877;52.344;16.790;2023-06-24T08:41:56;101245.77;;;23.61;54.76
28701;BME280;15877;52.344;16.790;2023-06-24T08:44:29;101245.10;;;23.59;54.53
28701;BME280;15877;52.344;16.790;2023-06-24T08:47:05;101243.36;;;23.56;54.84
28701;BME280;15877;52.344;16.790;2023-06-24T08:49:44;101240.72;;;23.55;54.70
28701;BME280;15877;52.344;16.790;2023-06-24T08:52:25;101238.71;;;23.66;54.68
28701;BME280;15877;52.344;16.790;2023-06-24T08:54:59;101237.95;;;23.80;54.47
28701;BME280;15877;52.344;16.790;2023-06-24T08:57:33;101226.81;;;23.86;54.72
28701;BME280;15877;52.344;16.790;2023-06-24T09:00:12;101221.90;;;24.05;54.88
28701;BME280;15877;52.344;16.790;2023-06-24T09:02:52;101222.41;;;24.17;53.92
28701;BME280;15877;52.344;16.790;2023-06-24T09:05:27;101209.03;;;24.00;53.38
28701;BME280;15877;52.344;16.790;2023-06-24T09:08:00;101225.65;;;24.13;53.47
28701;BME280;15877;52.344;16.790;2023-06-24T09:10:34;101226.54;;;24.28;52.88
28701;BME280;15877;52.344;16.790;2023-06-24T09:13:08;101229.64;;;24.16;53.38
28701;BME280;15877;52.344;16.790;2023-06-24T09:15:41;101231.20;;;24.07;53.76
28701;BME280;15877;52.344;16.790;2023-06-24T09:18:15;101235.09;;;24.15;53.50
28701;BME280;15877;52.344;16.790;2023-06-24T09:20:49;101233.58;;;24.21;51.88
28701;BME280;15877;52.344;16.790;2023-06-24T09:23:26;101231.89;;;24.17;52.00
28701;BME280;15877;52.344;16.790;2023-06-24T09:26:02;101233.64;;;24.30;51.91
28701;BME280;15877;52.344;16.790;2023-06-24T09:28:34;101235.32;;;24.49;51.41
28701;BME280;15877;52.344;16.790;2023-06-24T09:31:09;101230.41;;;24.51;51.65
28701;BME280;15877;52.344;16.790;2023-06-24T09:33:45;101231.40;;;24.62;51.95
28701;BME280;15877;52.344;16.790;2023-06-24T09:36:19;101230.58;;;24.47;52.30
28701;BME280;15877;52.344;16.790;2023-06-24T09:38:54;101234.37;;;24.51;51.44
28701;BME280;15877;52.344;16.790;2023-06-24T09:41:28;101237.66;;;24.72;51.51
28701;BME280;15877;52.344;16.790;2023-06-24T09:44:01;101229.71;;;24.85;51.23
28701;BME280;15877;52.344;16.790;2023-06-24T09:46:37;101228.27;;;25.08;50.54
28701;BME280;15877;52.344;16.790;2023-06-24T09:49:11;101226.66;;;25.07;49.80
28701;BME280;15877;52.344;16.790;2023-06-24T09:51:47;101230.28;;;25.02;50.35
28701;BME280;15877;52.344;16.790;2023-06-24T09:54:20;101231.21;;;24.80;49.12
28701;BME280;15877;52.344;16.790;2023-06-24T09:56:55;101229.98;;;24.78;47.40
28701;BME280;15877;52.344;16.790;2023-06-24T09:59:31;101228.03;;;24.91;46.89
28701;BME280;15877;52.344;16.790;2023-06-24T10:02:06;101229.29;;;25.19;47.33
28701;BME280;15877;52.344;16.790;2023-06-24T10:04:44;101225.33;;;25.15;47.14
28701;BME280;15877;52.344;16.790;2023-06-24T10:07:19;101230.17;;;25.03;46.81
28701;BME280;15877;52.344;16.790;2023-06-24T10:09:53;101234.48;;;25.19;46.49
28701;BME280;15877;52.344;16.790;2023-06-24T10:12:26;101207.42;;;25.29;47.04
28701;BME280;15877;52.344;16.790;2023-06-24T10:15:09;101209.71;;;25.35;46.63
28701;BME280;15877;52.344;16.790;2023-06-24T10:17:43;101225.64;;;25.60;47.42
28701;BME280;15877;52.344;16.790;2023-06-24T10:20:25;101231.39;;;25.66;46.92
28701;BME280;15877;52.344;16.790;2023-06-24T10:22:59;101215.08;;;25.68;46.60
28701;BME280;15877;52.344;16.790;2023-06-24T10:25:39;101230.54;;;25.74;47.11
28701;BME280;15877;52.344;16.790;2023-06-24T10:28:12;101229.82;;;25.70;47.99
28701;BME280;15877;52.344;16.790;2023-06-24T10:30:55;101232.27;;;25.58;47.02
28701;BME280;15877;52.344;16.790;2023-06-24T10:33:29;101211.09;;;25.72;46.71
28701;BME280;15877;52.344;16.790;2023-06-24T10:36:03;101228.67;;;25.85;47.32
28701;BME280;15877;52.344;16.790;2023-06-24T10:38:39;101233.86;;;25.62;46.46
28701;BME280;15877;52.344;16.790;2023-06-24T10:41:18;101230.91;;;25.35;46.47
28701;BME280;15877;52.344;16.790;2023-06-24T10:43:57;101225.89;;;25.59;46.33
28701;BME280;15877;52.344;16.790;2023-06-24T10:46:34;101227.38;;;25.87;46.14
28701;BME280;15877;52.344;16.790;2023-06-24T10:49:07;101222.27;;;25.76;45.10
28701;BME280;15877;52.344;16.790;2023-06-24T10:51:41;101221.05;;;25.49;44.71
28701;BME280;15877;52.344;16.790;2023-06-24T10:54:14;101220.13;;;25.38;45.08
28701;BME280;15877;52.344;16.790;2023-06-24T10:56:47;101219.62;;;25.54;44.99
28701;BME280;15877;52.344;16.790;2023-06-24T10:59:21;101218.45;;;25.87;44.69
28701;BME280;15877;52.344;16.790;2023-06-24T11:01:57;101215.96;;;25.94;45.05
28701;BME280;15877;52.344;16.790;2023-06-24T11:04:31;101208.66;;;25.80;45.27
28701;BME280;15877;52.344;16.790;2023-06-24T11:07:04;101214.13;;;25.70;45.80
28701;BME280;15877;52.344;16.790;2023-06-24T11:09:42;101209.19;;;26.01;45.83
28701;BME280;15877;52.344;16.790;2023-06-24T11:12:39;101210.75;;;26.20;44.88
28701;BME280;15877;52.344;16.790;2023-06-24T11:15:14;101213.22;;;26.38;44.46
28701;BME280;15877;52.344;16.790;2023-06-24T11:17:52;101212.12;;;26.47;43.91
28701;BME280;15877;52.344;16.790;2023-06-24T11:20:31;101203.38;;;26.59;43.64
28701;BME280;15877;52.344;16.790;2023-06-24T11:23:08;101210.29;;;26.85;43.43
28701;BME280;15877;52.344;16.790;2023-06-24T11:25:43;101205.70;;;26.78;43.17
28701;BME280;15877;52.344;16.790;2023-06-24T11:28:18;101206.55;;;26.51;43.64
28701;BME280;15877;52.344;16.790;2023-06-24T11:30:54;101210.71;;;26.16;43.16
28701;BME280;15877;52.344;16.790;2023-06-24T11:33:30;101208.85;;;26.04;41.81
28701;BME280;15877;52.344;16.790;2023-06-24T11:36:10;101202.48;;;26.19;42.00
28701;BME280;15877;52.344;16.790;2023-06-24T11:38:47;101197.71;;;26.41;41.29
28701;BME280;15877;52.344;16.790;2023-06-24T11:41:22;101195.15;;;26.51;41.05
28701;BME280;15877;52.344;16.790;2023-06-24T11:43:59;101175.28;;;26.62;41.72
28701;BME280;15877;52.344;16.790;2023-06-24T11:46:34;101196.38;;;26.48;41.18
28701;BME280;15877;52.344;16.790;2023-06-24T11:49:16;101186.09;;;26.65;41.37
28701;BME280;15877;52.344;16.790;2023-06-24T11:51:57;101192.98;;;26.81;40.71
28701;BME280;15877;52.344;16.790;2023-06-24T11:54:42;101182.73;;;26.97;40.95
28701;BME280;15877;52.344;16.790;2023-06-24T11:57:18;101191.57;;;26.97;41.36
28701;BME280;15877;52.344;16.790;2023-06-24T12:00:04;101197.60;;;26.59;41.24
28701;BME280;15877;52.344;16.790;2023-06-24T12:02:54;101194.45;;;26.60;41.38
28701;BME280;15877;52.344;16.790;2023-06-24T12:05:30;101190.08;;;26.78;41.79
28701;BME280;15877;52.344;16.790;2023-06-24T12:08:06;101190.48;;;26.83;40.92
28701;BME280;15877;52.344;16.790;2023-06-24T12:10:45;101184.41;;;26.94;40.05
28701;BME280;15877;52.344;16.790;2023-06-24T12:13:20;101189.86;;;27.02;39.85
28701;BME280;15877;52.344;16.790;2023-06-24T12:15:53;101183.64;;;27.05;40.55
28701;BME280;15877;52.344;16.790;2023-06-24T12:18:28;101194.67;;;26.55;41.41
28701;BME280;15877;52.344;16.790;2023-06-24T12:21:02;101187.65;;;26.46;42.05
28701;BME280;15877;52.344;16.790;2023-06-24T12:23:43;101182.62;;;26.77;41.57
28701;BME280;15877;52.344;16.790;2023-06-24T12:26:25;101184.77;;;26.81;41.37
28701;BME280;15877;52.344;16.790;2023-06-24T12:28:58;101194.20;;;26.81;40.14
28701;BME280;15877;52.344;16.790;2023-06-24T12:31:34;101178.98;;;27.01;39.67
28701;BME280;15877;52.344;16.790;2023-06-24T12:34:15;101160.48;;;26.93;38.69
28701;BME280;15877;52.344;16.790;2023-06-24T12:36:48;101180.51;;;27.25;38.98
28701;BME280;15877;52.344;16.790;2023-06-24T12:39:22;101179.25;;;27.40;38.29
28701;BME280;15877;52.344;16.790;2023-06-24T12:42:13;101174.46;;;27.58;38.12
28701;BME280;15877;52.344;16.790;2023-06-24T12:44:52;101181.52;;;27.76;38.22
28701;BME280;15877;52.344;16.790;2023-06-24T12:47:25;101176.87;;;27.78;37.46
28701;BME280;15877;52.344;16.790;2023-06-24T12:50:05;101182.95;;;27.84;37.55
28701;BME280;15877;52.344;16.790;2023-06-24T12:52:51;101167.66;;;27.85;37.82
28701;BME280;15877;52.344;16.790;2023-06-24T12:55:29;101183.23;;;28.05;37.81
28701;BME280;15877;52.344;16.790;2023-06-24T12:58:03;101177.74;;;28.20;38.04
28701;BME280;15877;52.344;16.790;2023-06-24T13:00:39;101181.52;;;28.32;37.84
28701;BME280;15877;52.344;16.790;2023-06-24T13:03:19;101163.83;;;27.87;38.31
28701;BME280;15877;52.344;16.790;2023-06-24T13:06:00;101182.98;;;27.97;39.22
28701;BME280;15877;52.344;16.790;2023-06-24T13:08:37;101179.20;;;27.78;39.22
28701;BME280;15877;52.344;16.790;2023-06-24T13:11:15;101181.78;;;27.80;39.19
28701;BME280;15877;52.344;16.790;2023-06-24T13:13:57;101181.00;;;27.55;39.41
28701;BME280;15877;52.344;16.790;2023-06-24T13:16:36;101181.55;;;27.46;40.04
28701;BME280;15877;52.344;16.790;2023-06-24T13:19:12;101178.28;;;27.60;40.19
28701;BME280;15877;52.344;16.790;2023-06-24T13:21:48;101177.67;;;27.92;40.12
28701;BME280;15877;52.344;16.790;2023-06-24T13:24:27;101174.96;;;27.80;39.97
28701;BME280;15877;52.344;16.790;2023-06-24T13:27:04;101177.86;;;27.65;39.68
28701;BME280;15877;52.344;16.790;2023-06-24T13:29:43;101178.11;;;27.81;39.35
28701;BME280;15877;52.344;16.790;2023-06-24T13:32:25;101182.73;;;27.83;38.41